sensor_id;sensor_type;location;lat;lon;timestamp;pressure;altitude;pressure_sealevel;temperature;humidity
59654;BME280;66556;52.008;5.432;2023-02-15T00:00:08;102983.0;;;4.26;97.66
59654;BME280;66556;52.008;5.432;2023-02-15T00:01:45;102983.0;;;4.24;98.34
59654;BME280;66556;52.008;5.432;2023-02-15T00:04:58;102983.99999999999;;;4.18;98.43
59654;BME280;66556;52.008;5.432;2023-02-15T00:06:35;102978.0;;;4.12;98.68
59654;BME280;66556;52.008;5.432;2023-02-15T00:08:11;102978.0;;;4.16;98.33
59654;BME280;66556;52.008;5.432;2023-02-15T00:11:39;102978.0;;;4.18;98.51
59654;BME280;66556;52.008;5.432;2023-02-15T00:13:17;102969.0;;;4.18;98.23
59654;BME280;66556;52.008;5.432;2023-02-15T00:14:53;102971.0;;;4.37;97.94
59654;BME280;66556;52.008;5.432;2023-02-15T00:16:29;102970.0;;;4.25;97.64
59654;BME280;66556;52.008;5.432;2023-02-15T00:19:44;102968.0;;;4.21;98.16
59654;BME280;66556;52.008;5.432;2023-02-15T00:21:21;102963.00000000001;;;4.16;97.88
59654;BME280;66556;52.008;5.432;2023-02-15T00:22:58;102964.00000000001;;;4.32;97.54
59654;BME280;66556;52.008;5.432;2023-02-15T00:26:11;102956.0;;;4.2;97.02
59654;BME280;66556;52.008;5.432;2023-02-15T00:27:48;102958.0;;;4.21;97.47
59654;BME280;66556;52.008;5.432;2023-02-15T00:29:25;102958.0;;;4.28;98.07
59654;BME280;66556;52.008;5.432;2023-02-15T00:31:04;102957.0;;;4.3;97.96
59654;BME280;66556;52.008;5.432;2023-02-15T00:34:18;102958.99999999999;;;4.41;98.24
59654;BME280;66556;52.008;5.432;2023-02-15T00:35:56;102961.99999999999;;;4.53;97.84
59654;BME280;66556;52.008;5.432;2023-02-15T00:37:33;102958.99999999999;;;4.66;98.59
59654;BME280;66556;52.008;5.432;2023-02-15T00:40:52;102955.0;;;4.79;99.5
59654;BME280;66556;52.008;5.432;2023-02-15T00:42:28;102956.0;;;5.07;98.97
59654;BME280;66556;52.008;5.432;2023-02-15T00:44:05;102953.0;;;4.71;98.35
59654;BME280;66556;52.008;5.432;2023-02-15T00:45:44;102950.0;;;4.53;98.06
59654;BME280;66556;52.008;5.432;2023-02-15T00:48:57;102946.0;;;4.61;98.58
59654;BME280;66556;52.008;5.432;2023-02-15T00:50:33;102944.0;;;4.66;98.72
59654;BME280;66556;52.008;5.432;2023-02-15T00:52:09;102941.00000000001;;;4.76;97.88
59654;BME280;66556;52.008;5.432;2023-02-15T00:55:22;102936.99999999999;;;4.72;98.3
59654;BME280;66556;52.008;5.432;2023-02-15T00:56:59;102940.00000000001;;;4.71;98.68
59654;BME280;66556;52.008;5.432;2023-02-15T00:58:35;102932.0;;;4.59;98.86
59654;BME280;66556;52.008;5.432;2023-02-15T01:01:49;102941.00000000001;;;4.76;99.7
59654;BME280;66556;52.008;5.432;2023-02-15T01:03:25;102941.00000000001;;;4.91;99.5
59654;BME280;66556;52.008;5.432;2023-02-15T01:05:01;102942.0;;;4.87;99.18
59654;BME280;66556;52.008;5.432;2023-02-15T01:06:38;102943.0;;;5.17;99.37
59654;BME280;66556;52.008;5.432;2023-02-15T01:09:51;102936.99999999999;;;5.24;99.03
59654;BME280;66556;52.008;5.432;2023-02-15T01:11:27;102934.99999999999;;;5.38;99.38
59654;BME280;66556;52.008;5.432;2023-02-15T01:13:03;102933.0;;;5.05;98.5
59654;BME280;66556;52.008;5.432;2023-02-15T01:16:17;102929.0;;;5.08;99.9
59654;BME280;66556;52.008;5.432;2023-02-15T01:17:53;102930.0;;;5.24;99.39
59654;BME280;66556;52.008;5.432;2023-02-15T01:19:30;102932.0;;;5.29;99.12
59654;BME280;66556;52.008;5.432;2023-02-15T01:22:50;102938.00000000001;;;5.09;98.72
59654;BME280;66556;52.008;5.432;2023-02-15T01:24:26;102931.0;;;5.04;99.37
59654;BME280;66556;52.008;5.432;2023-02-15T01:26:03;102924.0;;;5.01;99.33
59654;BME280;66556;52.008;5.432;2023-02-15T01:27:39;102923.0;;;4.82;98.82
59654;BME280;66556;52.008;5.432;2023-02-15T01:30:51;102918.0;;;4.66;98.79
59654;BME280;66556;52.008;5.432;2023-02-15T01:32:28;102917.0;;;4.63;98.95
59654;BME280;66556;52.008;5.432;2023-02-15T01:34:04;102916.00000000001;;;4.74;98.82
59654;BME280;66556;52.008;5.432;2023-02-15T01:37:16;102919.0;;;4.75;98.41
59654;BME280;66556;52.008;5.432;2023-02-15T01:40:29;102917.0;;;4.66;99.83
59654;BME280;66556;52.008;5.432;2023-02-15T01:42:08;102911.99999999999;;;4.68;99.66
59654;BME280;66556;52.008;5.432;2023-02-15T01:45:27;102905.0;;;4.37;99.33
59654;BME280;66556;52.008;5.432;2023-02-15T01:47:04;102907.0;;;4.2;99.11
59654;BME280;66556;52.008;5.432;2023-02-15T01:48:43;102906.0;;;4.16;100.0
59654;BME280;66556;52.008;5.432;2023-02-15T01:52:06;102908.0;;;4.26;100.0
59654;BME280;66556;52.008;5.432;2023-02-15T01:53:45;102903.0;;;4.36;99.86
59654;BME280;66556;52.008;5.432;2023-02-15T01:55:30;102899.0;;;4.41;99.36
59654;BME280;66556;52.008;5.432;2023-02-15T01:57:10;102902.0;;;4.28;99.4
59654;BME280;66556;52.008;5.432;2023-02-15T01:58:53;102905.0;;;4.47;99.52
59654;BME280;66556;52.008;5.432;2023-02-15T02:02:12;102905.0;;;4.55;99.83
59654;BME280;66556;52.008;5.432;2023-02-15T02:03:55;102903.0;;;4.53;99.95
59654;BME280;66556;52.008;5.432;2023-02-15T02:05:34;102899.0;;;4.57;99.66
59654;BME280;66556;52.008;5.432;2023-02-15T02:07:12;102894.0;;;4.49;99.4
59654;BME280;66556;52.008;5.432;2023-02-15T02:10:28;102894.0;;;4.74;98.94
59654;BME280;66556;52.008;5.432;2023-02-15T02:12:05;102888.00000000001;;;4.91;98.82
59654;BME280;66556;52.008;5.432;2023-02-15T02:13:42;102888.00000000001;;;4.82;99.28
59654;BME280;66556;52.008;5.432;2023-02-15T02:17:09;102888.00000000001;;;4.84;100.0
59654;BME280;66556;52.008;5.432;2023-02-15T02:19:09;102883.0;;;4.91;100.0
59654;BME280;66556;52.008;5.432;2023-02-15T02:21:30;102890.00000000001;;;4.95;100.0
59654;BME280;66556;52.008;5.432;2023-02-15T02:23:24;102882.0;;;5.15;100.0
59654;BME280;66556;52.008;5.432;2023-02-15T02:26:56;102882.0;;;5.33;100.0
59654;BME280;66556;52.008;5.432;2023-02-15T02:29:45;102873.0;;;5.77;100.0
59654;BME280;66556;52.008;5.432;2023-02-15T02:33:03;102863.00000000001;;;5.55;100.0
59654;BME280;66556;52.008;5.432;2023-02-15T02:35:45;102866.00000000001;;;5.68;100.0
59654;BME280;66556;52.008;5.432;2023-02-15T02:37:30;102863.00000000001;;;5.37;100.0
59654;BME280;66556;52.008;5.432;2023-02-15T02:39:21;102859.99999999999;;;5.24;100.0
59654;BME280;66556;52.008;5.432;2023-02-15T02:41:11;102858.99999999999;;;5.25;99.68
59654;BME280;66556;52.008;5.432;2023-02-15T02:42:56;102858.99999999999;;;5.33;100.0
59654;BME280;66556;52.008;5.432;2023-02-15T02:46:22;102855.0;;;5.38;99.95
59654;BME280;66556;52.008;5.432;2023-02-15T02:48:04;102842.0;;;5.44;100.0
59654;BME280;66556;52.008;5.432;2023-02-15T02:49:43;102848.0;;;5.24;100.0
59654;BME280;66556;52.008;5.432;2023-02-15T02:51:21;102845.0;;;5.6;100.0
59654;BME280;66556;52.008;5.432;2023-02-15T02:54:35;102842.0;;;5.6;100.0
59654;BME280;66556;52.008;5.432;2023-02-15T02:56:19;102842.0;;;5.65;100.0
59654;BME280;66556;52.008;5.432;2023-02-15T02:58:02;102841.00000000001;;;5.61;99.75
59654;BME280;66556;52.008;5.432;2023-02-15T02:59:44;102836.99999999999;;;5.74;100.0
59654;BME280;66556;52.008;5.432;2023-02-15T03:03:10;102836.99999999999;;;5.82;99.64
59654;BME280;66556;52.008;5.432;2023-02-15T03:05:01;102834.99999999999;;;5.59;99.69
59654;BME280;66556;52.008;5.432;2023-02-15T03:06:47;102833.0;;;5.51;100.0
59654;BME280;66556;52.008;5.432;2023-02-15T03:08:31;102826.0;;;5.44;100.0
59654;BME280;66556;52.008;5.432;2023-02-15T03:10:13;102827.0;;;5.45;100.0
59654;BME280;66556;52.008;5.432;2023-02-15T03:13:27;102826.0;;;5.75;100.0
59654;BME280;66556;52.008;5.432;2023-02-15T03:15:08;102826.0;;;5.47;100.0
59654;BME280;66556;52.008;5.432;2023-02-15T03:16:47;102825.0;;;5.78;100.0
59654;BME280;66556;52.008;5.432;2023-02-15T03:18:31;102821.0;;;5.73;100.0
59654;BME280;66556;52.008;5.432;2023-02-15T03:22:00;102820.0;;;5.7;100.0
59654;BME280;66556;52.008;5.432;2023-02-15T03:23:46;102815.00000000001;;;5.54;100.0
59654;BME280;66556;52.008;5.432;2023-02-15T03:25:25;102815.00000000001;;;5.89;100.0
59654;BME280;66556;52.008;5.432;2023-02-15T03:27:07;102808.0;;;5.89;100.0
59654;BME280;66556;52.008;5.432;2023-02-15T03:28:47;102803.0;;;5.83;100.0
59654;BME280;66556;52.008;5.432;2023-02-15T03:32:07;102801.0;;;5.76;100.0
59654;BME280;66556;52.008;5.432;2023-02-15T03:33:52;102804.0;;;5.73;100.0
59654;BME280;66556;52.008;5.432;2023-02-15T03:35:34;102806.0;;;5.65;100.0
59654;BME280;66556;52.008;5.432;2023-02-15T03:37:26;102802.0;;;5.4;100.0
59654;BME280;66556;52.008;5.432;2023-02-15T03:41:23;102806.0;;;5.56;100.0
59654;BME280;66556;52.008;5.432;2023-02-15T03:43:09;102799.0;;;5.82;100.0
59654;BME280;66556;52.008;5.432;2023-02-15T03:44:52;102800.0;;;5.77;100.0
59654;BME280;66556;52.008;5.432;2023-02-15T03:46:39;102797.0;;;5.82;100.0
59654;BME280;66556;52.008;5.432;2023-02-15T03:48:19;102798.0;;;5.76;100.0
59654;BME280;66556;52.008;5.432;2023-02-15T03:50:02;102796.0;;;5.57;100.0
59654;BME280;66556;52.008;5.432;2023-02-15T03:53:23;102802.0;;;5.38;100.0
59654;BME280;66556;52.008;5.432;2023-02-15T03:55:01;102799.0;;;5.29;100.0
59654;BME280;66556;52.008;5.432;2023-02-15T03:56:39;102798.0;;;5.65;100.0
59654;BME280;66556;52.008;5.432;2023-02-15T04:02:30;102791.00000000001;;;5.64;100.0
59654;BME280;66556;52.008;5.432;2023-02-15T04:05:55;102788.00000000001;;;5.36;100.0
59654;BME280;66556;52.008;5.432;2023-02-15T04:07:31;102790.00000000001;;;5.54;100.0
59654;BME280;66556;52.008;5.432;2023-02-15T04:10:56;102784.99999999999;;;5.72;100.0
59654;BME280;66556;52.008;5.432;2023-02-15T04:12:42;102792.0;;;6.0;100.0
59654;BME280;66556;52.008;5.432;2023-02-15T04:17:43;102792.0;;;5.89;100.0
59654;BME280;66556;52.008;5.432;2023-02-15T04:25:19;102786.99999999999;;;5.67;100.0
59654;BME280;66556;52.008;5.432;2023-02-15T04:28:33;102788.00000000001;;;5.74;100.0
59654;BME280;66556;52.008;5.432;2023-02-15T04:30:12;102791.00000000001;;;5.88;100.0
59654;BME280;66556;52.008;5.432;2023-02-15T04:31:48;102784.99999999999;;;5.67;100.0
59654;BME280;66556;52.008;5.432;2023-02-15T04:35:02;102784.99999999999;;;5.4;100.0
59654;BME280;66556;52.008;5.432;2023-02-15T04:36:39;102789.00000000001;;;5.59;100.0
59654;BME280;66556;52.008;5.432;2023-02-15T04:38:16;102777.0;;;5.55;100.0
59654;BME280;66556;52.008;5.432;2023-02-15T04:41:29;102780.0;;;5.43;100.0
59654;BME280;66556;52.008;5.432;2023-02-15T04:43:05;102777.0;;;5.73;100.0
59654;BME280;66556;52.008;5.432;2023-02-15T04:44:42;102779.0;;;5.89;100.0
59654;BME280;66556;52.008;5.432;2023-02-15T04:46:19;102783.99999999999;;;5.67;100.0
59654;BME280;66556;52.008;5.432;2023-02-15T04:49:31;102776.0;;;5.61;100.0
59654;BME280;66556;52.008;5.432;2023-02-15T04:51:07;102782.0;;;5.59;100.0
59654;BME280;66556;52.008;5.432;2023-02-15T04:52:43;102774.0;;;5.42;100.0
59654;BME280;66556;52.008;5.432;2023-02-15T04:55:56;102776.0;;;5.51;100.0
59654;BME280;66556;52.008;5.432;2023-02-15T04:57:33;102770.0;;;5.55;100.0
59654;BME280;66556;52.008;5.432;2023-02-15T04:59:10;102763.00000000001;;;5.66;100.0
59654;BME280;66556;52.008;5.432;2023-02-15T05:02:22;102764.00000000001;;;5.7;100.0
59654;BME280;66556;52.008;5.432;2023-02-15T05:03:58;102769.0;;;5.69;100.0
59654;BME280;66556;52.008;5.432;2023-02-15T05:05:34;102768.0;;;5.79;100.0
59654;BME280;66556;52.008;5.432;2023-02-15T05:07:11;102767.0;;;5.84;99.65
59654;BME280;66556;52.008;5.432;2023-02-15T05:10:23;102763.00000000001;;;5.6;100.0
59654;BME280;66556;52.008;5.432;2023-02-15T05:11:59;102766.00000000001;;;5.84;100.0
59654;BME280;66556;52.008;5.432;2023-02-15T05:13:35;102757.0;;;5.92;98.58
59654;BME280;66556;52.008;5.432;2023-02-15T05:16:47;102756.0;;;5.85;97.27
59654;BME280;66556;52.008;5.432;2023-02-15T05:18:23;102754.0;;;5.5;97.43
59654;BME280;66556;52.008;5.432;2023-02-15T05:19:59;102746.0;;;5.44;97.89
59654;BME280;66556;52.008;5.432;2023-02-15T05:23:12;102753.0;;;5.33;98.02
59654;BME280;66556;52.008;5.432;2023-02-15T05:28:58;102746.0;;;5.4;98.56
59654;BME280;66556;52.008;5.432;2023-02-15T05:30:34;102750.0;;;5.36;98.7
59654;BME280;66556;52.008;5.432;2023-02-15T05:33:49;102753.0;;;5.46;97.65
59654;BME280;66556;52.008;5.432;2023-02-15T05:35:26;102756.0;;;5.24;97.78
59654;BME280;66556;52.008;5.432;2023-02-15T05:37:02;102752.0;;;5.24;98.61
59654;BME280;66556;52.008;5.432;2023-02-15T05:38:39;102752.0;;;5.22;99.24
59654;BME280;66556;52.008;5.432;2023-02-15T05:41:51;102756.0;;;5.08;99.23
59654;BME280;66556;52.008;5.432;2023-02-15T05:45:06;102750.0;;;5.17;100.0
59654;BME280;66556;52.008;5.432;2023-02-15T05:48:20;102755.0;;;5.15;100.0
59654;BME280;66556;52.008;5.432;2023-02-15T05:49:58;102753.0;;;5.23;100.0
59654;BME280;66556;52.008;5.432;2023-02-15T05:51:34;102752.0;;;4.96;100.0
59654;BME280;66556;52.008;5.432;2023-02-15T05:53:10;102750.0;;;5.21;100.0
59654;BME280;66556;52.008;5.432;2023-02-15T05:56:23;102749.0;;;5.29;99.43
59654;BME280;66556;52.008;5.432;2023-02-15T05:57:59;102755.0;;;5.36;99.68
59654;BME280;66556;52.008;5.432;2023-02-15T05:59:35;102756.0;;;5.34;98.82
59654;BME280;66556;52.008;5.432;2023-02-15T06:02:50;102754.0;;;5.38;98.82
59654;BME280;66556;52.008;5.432;2023-02-15T06:04:26;102751.0;;;5.47;99.14
59654;BME280;66556;52.008;5.432;2023-02-15T06:06:04;102744.0;;;5.43;99.39
59654;BME280;66556;52.008;5.432;2023-02-15T06:09:19;102751.0;;;5.24;98.58
59654;BME280;66556;52.008;5.432;2023-02-15T06:10:56;102748.0;;;5.32;99.23
59654;BME280;66556;52.008;5.432;2023-02-15T06:12:32;102754.0;;;5.22;99.4
59654;BME280;66556;52.008;5.432;2023-02-15T06:14:08;102757.0;;;5.31;98.75
59654;BME280;66556;52.008;5.432;2023-02-15T06:17:22;102753.0;;;5.35;98.4
59654;BME280;66556;52.008;5.432;2023-02-15T06:18:59;102754.0;;;5.04;99.97
59654;BME280;66556;52.008;5.432;2023-02-15T06:20:36;102754.0;;;4.64;100.0
59654;BME280;66556;52.008;5.432;2023-02-15T06:23:50;102750.0;;;5.04;100.0
59654;BME280;66556;52.008;5.432;2023-02-15T06:25:26;102747.0;;;4.95;100.0
59654;BME280;66556;52.008;5.432;2023-02-15T06:27:02;102746.0;;;4.91;100.0
59654;BME280;66556;52.008;5.432;2023-02-15T06:30:15;102748.0;;;4.84;100.0
59654;BME280;66556;52.008;5.432;2023-02-15T06:31:51;102750.0;;;4.49;100.0
59654;BME280;66556;52.008;5.432;2023-02-15T06:33:27;102745.0;;;4.91;100.0
59654;BME280;66556;52.008;5.432;2023-02-15T06:35:03;102745.0;;;5.04;99.46
59654;BME280;66556;52.008;5.432;2023-02-15T06:38:17;102745.0;;;4.92;99.06
59654;BME280;66556;52.008;5.432;2023-02-15T06:39:53;102742.0;;;4.89;99.98
59654;BME280;66556;52.008;5.432;2023-02-15T06:41:30;102745.0;;;4.78;100.0
59654;BME280;66556;52.008;5.432;2023-02-15T06:44:42;102740.00000000001;;;4.92;100.0
59654;BME280;66556;52.008;5.432;2023-02-15T06:46:18;102742.0;;;5.24;99.41
59654;BME280;66556;52.008;5.432;2023-02-15T06:47:54;102742.0;;;5.08;99.64
59654;BME280;66556;52.008;5.432;2023-02-15T06:51:06;102738.00000000001;;;5.27;98.68
59654;BME280;66556;52.008;5.432;2023-02-15T06:52:42;102733.99999999999;;;5.17;98.85
59654;BME280;66556;52.008;5.432;2023-02-15T06:54:19;102736.99999999999;;;4.91;100.0
59654;BME280;66556;52.008;5.432;2023-02-15T06:56:00;102741.00000000001;;;4.96;100.0
59654;BME280;66556;52.008;5.432;2023-02-15T06:59:13;102748.0;;;4.66;100.0
59654;BME280;66556;52.008;5.432;2023-02-15T07:00:51;102749.0;;;4.74;100.0
59654;BME280;66556;52.008;5.432;2023-02-15T07:02:27;102749.0;;;4.68;100.0
59654;BME280;66556;52.008;5.432;2023-02-15T07:05:40;102740.00000000001;;;4.96;100.0
59654;BME280;66556;52.008;5.432;2023-02-15T07:07:16;102742.0;;;4.86;100.0
59654;BME280;66556;52.008;5.432;2023-02-15T07:08:52;102740.00000000001;;;4.63;100.0
59654;BME280;66556;52.008;5.432;2023-02-15T07:13:09;102732.0;;;4.92;100.0
59654;BME280;66556;52.008;5.432;2023-02-15T07:14:45;102740.00000000001;;;4.72;100.0
59654;BME280;66556;52.008;5.432;2023-02-15T07:17:58;102740.00000000001;;;4.75;100.0
59654;BME280;66556;52.008;5.432;2023-02-15T07:19:34;102736.99999999999;;;4.88;100.0
59654;BME280;66556;52.008;5.432;2023-02-15T07:21:10;102743.0;;;4.62;100.0
59654;BME280;66556;52.008;5.432;2023-02-15T07:24:23;102742.0;;;4.41;100.0
59654;BME280;66556;52.008;5.432;2023-02-15T07:26:00;102733.99999999999;;;4.64;100.0
59654;BME280;66556;52.008;5.432;2023-02-15T07:27:37;102731.0;;;4.51;100.0
59654;BME280;66556;52.008;5.432;2023-02-15T07:30:50;102727.0;;;5.11;100.0
59654;BME280;66556;52.008;5.432;2023-02-15T07:32:28;102728.0;;;4.97;100.0
59654;BME280;66556;52.008;5.432;2023-02-15T07:34:05;102720.0;;;5.27;100.0
59654;BME280;66556;52.008;5.432;2023-02-15T07:35:46;102719.0;;;5.43;100.0
59654;BME280;66556;52.008;5.432;2023-02-15T07:39:00;102718.0;;;5.21;100.0
59654;BME280;66556;52.008;5.432;2023-02-15T07:40:37;102716.00000000001;;;5.21;100.0
59654;BME280;66556;52.008;5.432;2023-02-15T07:42:13;102713.00000000001;;;4.82;100.0
59654;BME280;66556;52.008;5.432;2023-02-15T07:45:25;102707.0;;;5.13;100.0
59654;BME280;66556;52.008;5.432;2023-02-15T07:47:01;102709.99999999999;;;4.87;100.0
59654;BME280;66556;52.008;5.432;2023-02-15T07:48:38;102704.0;;;5.22;100.0
59654;BME280;66556;52.008;5.432;2023-02-15T07:51:53;102707.0;;;5.39;100.0
59654;BME280;66556;52.008;5.432;2023-02-15T07:53:29;102707.0;;;5.41;100.0
59654;BME280;66556;52.008;5.432;2023-02-15T07:55:06;102702.0;;;5.25;100.0
59654;BME280;66556;52.008;5.432;2023-02-15T07:56:43;102704.0;;;5.38;100.0
59654;BME280;66556;52.008;5.432;2023-02-15T07:59:56;102705.0;;;5.33;100.0
59654;BME280;66556;52.008;5.432;2023-02-15T08:01:35;102702.0;;;5.03;100.0
59654;BME280;66556;52.008;5.432;2023-02-15T08:03:15;102699.0;;;5.18;100.0
59654;BME280;66556;52.008;5.432;2023-02-15T08:06:28;102698.0;;;5.29;100.0
59654;BME280;66556;52.008;5.432;2023-02-15T08:08:07;102693.0;;;5.24;100.0
59654;BME280;66556;52.008;5.432;2023-02-15T08:09:43;102695.0;;;5.54;100.0
59654;BME280;66556;52.008;5.432;2023-02-15T08:11:30;102692.0;;;4.93;100.0
59654;BME280;66556;52.008;5.432;2023-02-15T08:14:44;102697.0;;;5.22;100.0
59654;BME280;66556;52.008;5.432;2023-02-15T08:16:24;102696.0;;;5.34;100.0
59654;BME280;66556;52.008;5.432;2023-02-15T08:18:00;102695.0;;;5.15;100.0
59654;BME280;66556;52.008;5.432;2023-02-15T08:19:36;102692.0;;;5.26;100.0
59654;BME280;66556;52.008;5.432;2023-02-15T08:22:49;102691.00000000001;;;5.13;100.0
59654;BME280;66556;52.008;5.432;2023-02-15T08:24:27;102689.00000000001;;;5.5;100.0
59654;BME280;66556;52.008;5.432;2023-02-15T08:26:05;102695.0;;;5.44;100.0
59654;BME280;66556;52.008;5.432;2023-02-15T08:29:19;102692.0;;;5.21;100.0
59654;BME280;66556;52.008;5.432;2023-02-15T08:31:04;102690.00000000001;;;5.3;100.0
59654;BME280;66556;52.008;5.432;2023-02-15T08:32:40;102690.00000000001;;;5.58;100.0
59654;BME280;66556;52.008;5.432;2023-02-15T08:37:32;102689.00000000001;;;5.62;100.0
59654;BME280;66556;52.008;5.432;2023-02-15T08:39:08;102686.99999999999;;;5.86;100.0
59654;BME280;66556;52.008;5.432;2023-02-15T08:40:44;102683.0;;;6.01;100.0
59654;BME280;66556;52.008;5.432;2023-02-15T08:43:59;102681.0;;;6.23;100.0
59654;BME280;66556;52.008;5.432;2023-02-15T08:45:36;102682.0;;;6.27;100.0
59654;BME280;66556;52.008;5.432;2023-02-15T08:47:13;102679.0;;;6.18;100.0
59654;BME280;66556;52.008;5.432;2023-02-15T08:50:26;102675.0;;;6.44;100.0
59654;BME280;66556;52.008;5.432;2023-02-15T08:52:02;102672.0;;;6.55;100.0
59654;BME280;66556;52.008;5.432;2023-02-15T08:53:39;102672.0;;;6.81;100.0
59654;BME280;66556;52.008;5.432;2023-02-15T08:55:16;102670.0;;;6.56;100.0
59654;BME280;66556;52.008;5.432;2023-02-15T08:58:29;102680.0;;;6.93;100.0
59654;BME280;66556;52.008;5.432;2023-02-15T09:00:07;102673.0;;;7.19;100.0
59654;BME280;66556;52.008;5.432;2023-02-15T09:01:43;102671.0;;;7.0;99.09
59654;BME280;66556;52.008;5.432;2023-02-15T09:04:56;102671.0;;;7.21;98.83
59654;BME280;66556;52.008;5.432;2023-02-15T09:06:32;102669.0;;;7.0;99.09
59654;BME280;66556;52.008;5.432;2023-02-15T09:08:09;102673.0;;;6.9;99.55
59654;BME280;66556;52.008;5.432;2023-02-15T09:11:25;102670.0;;;7.01;99.63
59654;BME280;66556;52.008;5.432;2023-02-15T09:13:02;102669.0;;;7.06;98.41
59654;BME280;66556;52.008;5.432;2023-02-15T09:14:38;102666.00000000001;;;6.97;98.52
59654;BME280;66556;52.008;5.432;2023-02-15T09:16:16;102667.0;;;6.96;98.85
59654;BME280;66556;52.008;5.432;2023-02-15T09:19:29;102663.00000000001;;;7.09;99.05
59654;BME280;66556;52.008;5.432;2023-02-15T09:21:08;102658.99999999999;;;6.99;98.62
59654;BME280;66556;52.008;5.432;2023-02-15T09:22:44;102666.00000000001;;;7.36;98.6
59654;BME280;66556;52.008;5.432;2023-02-15T09:26:03;102665.00000000001;;;7.43;96.69
59654;BME280;66556;52.008;5.432;2023-02-15T09:27:39;102658.99999999999;;;7.53;96.6
59654;BME280;66556;52.008;5.432;2023-02-15T09:29:16;102658.0;;;7.54;96.51
59654;BME280;66556;52.008;5.432;2023-02-15T09:30:53;102658.99999999999;;;7.75;96.0
59654;BME280;66556;52.008;5.432;2023-02-15T09:34:05;102667.0;;;7.6;94.78
59654;BME280;66556;52.008;5.432;2023-02-15T09:35:42;102659.99999999999;;;7.92;94.77
59654;BME280;66556;52.008;5.432;2023-02-15T09:37:18;102663.00000000001;;;7.97;93.58
59654;BME280;66556;52.008;5.432;2023-02-15T09:40:39;102659.99999999999;;;8.09;94.47
59654;BME280;66556;52.008;5.432;2023-02-15T09:43:05;102656.0;;;8.11;92.83
59654;BME280;66556;52.008;5.432;2023-02-15T09:45:05;102654.0;;;8.59;93.0
59654;BME280;66556;52.008;5.432;2023-02-15T09:47:27;102654.0;;;8.36;91.6
59654;BME280;66556;52.008;5.432;2023-02-15T09:49:21;102650.0;;;8.32;93.29
59654;BME280;66556;52.008;5.432;2023-02-15T09:51:19;102651.0;;;8.43;91.96
59654;BME280;66556;52.008;5.432;2023-02-15T09:53:15;102652.0;;;8.64;92.35
59654;BME280;66556;52.008;5.432;2023-02-15T09:55:08;102651.0;;;8.57;90.71
59654;BME280;66556;52.008;5.432;2023-02-15T09:56:55;102653.0;;;8.38;90.71
59654;BME280;66556;52.008;5.432;2023-02-15T09:58:41;102654.0;;;8.36;91.2
59654;BME280;66556;52.008;5.432;2023-02-15T10:00:29;102655.0;;;8.57;91.4
59654;BME280;66556;52.008;5.432;2023-02-15T10:02:23;102658.0;;;8.69;90.37
59654;BME280;66556;52.008;5.432;2023-02-15T10:06:17;102656.0;;;9.21;91.56
59654;BME280;66556;52.008;5.432;2023-02-15T10:08:42;102655.0;;;9.27;87.16
59654;BME280;66556;52.008;5.432;2023-02-15T10:10:34;102658.99999999999;;;9.17;86.44
59654;BME280;66556;52.008;5.432;2023-02-15T10:12:29;102658.99999999999;;;9.44;86.69
59654;BME280;66556;52.008;5.432;2023-02-15T10:14:21;102664.00000000001;;;9.55;85.87
59654;BME280;66556;52.008;5.432;2023-02-15T10:16:25;102668.0;;;9.72;85.83
59654;BME280;66556;52.008;5.432;2023-02-15T10:19:12;102665.00000000001;;;9.68;84.65
59654;BME280;66556;52.008;5.432;2023-02-15T10:20:55;102667.0;;;9.98;85.27
59654;BME280;66556;52.008;5.432;2023-02-15T10:22:45;102659.99999999999;;;10.17;83.21
59654;BME280;66556;52.008;5.432;2023-02-15T10:24:39;102655.0;;;10.39;83.26
59654;BME280;66556;52.008;5.432;2023-02-15T10:26:42;102657.0;;;10.74;82.21
59654;BME280;66556;52.008;5.432;2023-02-15T10:28:23;102657.0;;;10.65;82.1
59654;BME280;66556;52.008;5.432;2023-02-15T10:30:10;102657.0;;;11.17;81.08
59654;BME280;66556;52.008;5.432;2023-02-15T10:31:49;102656.0;;;11.32;82.53
59654;BME280;66556;52.008;5.432;2023-02-15T10:35:21;102659.99999999999;;;11.73;82.34
59654;BME280;66556;52.008;5.432;2023-02-15T10:37:15;102658.99999999999;;;11.61;78.02
59654;BME280;66556;52.008;5.432;2023-02-15T10:40:01;102664.00000000001;;;11.7;77.38
59654;BME280;66556;52.008;5.432;2023-02-15T10:43:42;102659.99999999999;;;12.2;78.62
59654;BME280;66556;52.008;5.432;2023-02-15T10:45:31;102672.0;;;11.72;73.06
59654;BME280;66556;52.008;5.432;2023-02-15T10:47:24;102668.0;;;11.99;73.49
59654;BME280;66556;52.008;5.432;2023-02-15T10:49:26;102659.99999999999;;;11.82;75.44
59654;BME280;66556;52.008;5.432;2023-02-15T10:51:53;102664.00000000001;;;11.84;73.74
59654;BME280;66556;52.008;5.432;2023-02-15T10:53:49;102663.00000000001;;;12.25;75.22
59654;BME280;66556;52.008;5.432;2023-02-15T10:56:08;102659.99999999999;;;12.88;75.05
59654;BME280;66556;52.008;5.432;2023-02-15T10:57:55;102652.0;;;12.81;70.56
59654;BME280;66556;52.008;5.432;2023-02-15T10:59:54;102647.0;;;12.83;70.73
59654;BME280;66556;52.008;5.432;2023-02-15T11:01:44;102650.0;;;13.37;72.66
59654;BME280;66556;52.008;5.432;2023-02-15T11:03:36;102655.0;;;13.8;69.66
59654;BME280;66556;52.008;5.432;2023-02-15T11:05:30;102649.0;;;14.12;71.28
59654;BME280;66556;52.008;5.432;2023-02-15T11:07:15;102643.0;;;14.11;69.3
59654;BME280;66556;52.008;5.432;2023-02-15T11:10:39;102647.0;;;14.1;65.49
59654;BME280;66556;52.008;5.432;2023-02-15T11:12:21;102642.0;;;14.35;65.53
59654;BME280;66556;52.008;5.432;2023-02-15T11:14:08;102632.0;;;14.76;66.94
59654;BME280;66556;52.008;5.432;2023-02-15T11:15:53;102638.00000000001;;;14.1;65.77
59654;BME280;66556;52.008;5.432;2023-02-15T11:17:35;102641.00000000001;;;14.41;64.1
59654;BME280;66556;52.008;5.432;2023-02-15T11:21:01;102639.00000000001;;;14.46;65.44